sensor_id;sensor_type;location;lat;lon;timestamp;P1;P2;P0
74434;PMS7003;62867;52.038;29.256;2023-09-19T00:01:05;2.2;2.2;1.8
74434;PMS7003;62867;52.038;29.256;2023-09-19T00:05:55;2.4;2.4;2
74434;PMS7003;62867;52.038;29.256;2023-09-19T00:11:15;2.8;2.2;1.6
74434;PMS7003;62867;52.038;29.256;2023-09-19T00:16:27;3;2.6;2
74434;PMS7003;62867;52.038;29.256;2023-09-19T00:21:17;2.6;2.6;2
74434;PMS7003;62867;52.038;29.256;2023-09-19T00:26:25;3;2.6;2.2
74434;PMS7003;62867;52.038;29.256;2023-09-19T00:31:15;3.2;2.6;1.8
74434;PMS7003;62867;52.038;29.256;2023-09-19T00:36:07;2;2;1.4
74434;PMS7003;62867;52.038;29.256;2023-09-19T00:40:55;3.3;3.3;2
74434;PMS7003;62867;52.038;29.256;2023-09-19T00:45:53;2.6;2.6;2.2
74434;PMS7003;62867;52.038;29.256;2023-09-19T00:50:53;2.8;2.8;2.2
74434;PMS7003;62867;52.038;29.256;2023-09-19T00:56:33;2.8;2.8;2
74434;PMS7003;62867;52.038;29.256;2023-09-19T01:01:13;3;3;2.2
74434;PMS7003;62867;52.038;29.256;2023-09-19T01:06:11;3;2.8;1.8
74434;PMS7003;62867;52.038;29.256;2023-09-19T01:10:50;2.8;2.8;2.2
74434;PMS7003;62867;52.038;29.256;2023-09-19T01:16:28;2.4;2.4;2
74434;PMS7003;62867;52.038;29.256;2023-09-19T01:21:36;3;3;2.2
74434;PMS7003;62867;52.038;29.256;2023-09-19T01:26:06;2.6;2.6;1.8
74434;PMS7003;62867;52.038;29.256;2023-09-19T01:30:51;3;3;2
74434;PMS7003;62867;52.038;29.256;2023-09-19T01:35:47;3.2;3;2.2
74434;PMS7003;62867;52.038;29.256;2023-09-19T01:40:55;2.6;2.6;2.2
74434;PMS7003;62867;52.038;29.256;2023-09-19T01:46:35;2.3;2.3;1.8
74434;PMS7003;62867;52.038;29.256;2023-09-19T01:51:09;2.4;2.4;1.8
74434;PMS7003;62867;52.038;29.256;2023-09-19T01:56:28;3;2.6;1.6
74434;PMS7003;62867;52.038;29.256;2023-09-19T02:01:12;3;3;2.2
74434;PMS7003;62867;52.038;29.256;2023-09-19T02:06:27;2.8;2.6;2
74434;PMS7003;62867;52.038;29.256;2023-09-19T02:11:29;3.2;2.8;1.8
74434;PMS7003;62867;52.038;29.256;2023-09-19T02:15:47;2.8;2.6;2
74434;PMS7003;62867;52.038;29.256;2023-09-19T02:20:52;2.6;2.6;2.4
74434;PMS7003;62867;52.038;29.256;2023-09-19T02:25:53;2.8;2.8;2.2
74434;PMS7003;62867;52.038;29.256;2023-09-19T02:30:51;3;3;2.2
74434;PMS7003;62867;52.038;29.256;2023-09-19T02:36:35;3;3;2.6
74434;PMS7003;62867;52.038;29.256;2023-09-19T02:41:33;3.8;3.8;2.8
74434;PMS7003;62867;52.038;29.256;2023-09-19T02:46:07;3;2.8;2.5
74434;PMS7003;62867;52.038;29.256;2023-09-19T02:51:05;2.8;2.6;2.2
74434;PMS7003;62867;52.038;29.256;2023-09-19T02:56:25;3.4;3.4;2.6
74434;PMS7003;62867;52.038;29.256;2023-09-19T03:01:33;2.8;2.8;2.4
74434;PMS7003;62867;52.038;29.256;2023-09-19T03:05:47;2.6;2.6;2
74434;PMS7003;62867;52.038;29.256;2023-09-19T03:10:47;3.2;2.8;2.4
74434;PMS7003;62867;52.038;29.256;2023-09-19T03:15:47;3.6;3.2;2.4
74434;PMS7003;62867;52.038;29.256;2023-09-19T03:20:57;3;2.8;2.2
74434;PMS7003;62867;52.038;29.256;2023-09-19T03:26:19;2.4;2.4;2
74434;PMS7003;62867;52.038;29.256;2023-09-19T03:30:56;2.8;2.6;2
74434;PMS7003;62867;52.038;29.256;2023-09-19T03:36:25;3;3;2.4
74434;PMS7003;62867;52.038;29.256;2023-09-19T03:41:33;2.4;2.4;1.8
74434;PMS7003;62867;52.038;29.256;2023-09-19T03:46:01;2.8;2.8;2.3
74434;PMS7003;62867;52.038;29.256;2023-09-19T03:51:19;2.6;2.6;1.6
74434;PMS7003;62867;52.038;29.256;2023-09-19T03:55:51;2.8;2.8;2
74434;PMS7003;62867;52.038;29.256;2023-09-19T04:00:47;3;3;2.4
74434;PMS7003;62867;52.038;29.256;2023-09-19T04:05:47;3.6;3.2;2
74434;PMS7003;62867;52.038;29.256;2023-09-19T04:10:51;3.8;3.6;2.4
74434;PMS7003;62867;52.038;29.256;2023-09-19T04:16:31;3.4;3.2;2.6
74434;PMS7003;62867;52.038;29.256;2023-09-19T04:20:49;5;4.2;3.4
74434;PMS7003;62867;52.038;29.256;2023-09-19T04:26:25;3;3;2.2
74434;PMS7003;62867;52.038;29.256;2023-09-19T04:31:33;3.2;3;2.4
74434;PMS7003;62867;52.038;29.256;2023-09-19T04:36:05;3.6;3.2;2.4
74434;PMS7003;62867;52.038;29.256;2023-09-19T04:41:25;3.6;3.2;2.4
74434;PMS7003;62867;52.038;29.256;2023-09-19T04:46:01;2.8;2.8;2.3
74434;PMS7003;62867;52.038;29.256;2023-09-19T04:51:05;3.4;3.4;2.6
74434;PMS7003;62867;52.038;29.256;2023-09-19T04:55:53;2.8;2.8;2.4
74434;PMS7003;62867;52.038;29.256;2023-09-19T05:00:57;2;2;1.4
74434;PMS7003;62867;52.038;29.256;2023-09-19T05:06:35;2.2;2.2;1.8
74434;PMS7003;62867;52.038;29.256;2023-09-19T05:11:19;2.6;2.4;2
74434;PMS7003;62867;52.038;29.256;2023-09-19T05:16:25;2.8;2.8;2
74434;PMS7003;62867;52.038;29.256;2023-09-19T05:21:33;2.2;2.2;1.4
74434;PMS7003;62867;52.038;29.256;2023-09-19T05:25:59;2.2;2.2;1.4
74434;PMS7003;62867;52.038;29.256;2023-09-19T05:31:23;2.4;2.4;2
74434;PMS7003;62867;52.038;29.256;2023-09-19T05:36:11;2.4;2.4;1.6
74434;PMS7003;62867;52.038;29.256;2023-09-19T05:40:49;2.2;2;1
74434;PMS7003;62867;52.038;29.256;2023-09-19T05:45:45;2.5;1.8;1.3
74434;PMS7003;62867;52.038;29.256;2023-09-19T05:50:45;2;2;1.4
74434;PMS7003;62867;52.038;29.256;2023-09-19T05:56:31;3;3;2.4
74434;PMS7003;62867;52.038;29.256;2023-09-19T06:00:47;3;2.8;2.2
74434;PMS7003;62867;52.038;29.256;2023-09-19T06:06:25;1.6;1.6;0.8
74434;PMS7003;62867;52.038;29.256;2023-09-19T06:11:35;1.6;1.6;1
74434;PMS7003;62867;52.038;29.256;2023-09-19T06:16:01;2;1.8;1.4
74434;PMS7003;62867;52.038;29.256;2023-09-19T06:21:27;2.6;2.4;1.6
74434;PMS7003;62867;52.038;29.256;2023-09-19T06:26:07;2;2;1.6
74434;PMS7003;62867;52.038;29.256;2023-09-19T06:31:13;2.8;2.8;2.6
74434;PMS7003;62867;52.038;29.256;2023-09-19T06:35:47;2.2;2.2;1.8
74434;PMS7003;62867;52.038;29.256;2023-09-19T06:40:59;1.6;1.4;1.2
74434;PMS7003;62867;52.038;29.256;2023-09-19T06:46:35;2.6;2.6;2
74434;PMS7003;62867;52.038;29.256;2023-09-19T06:50:57;3;2.8;2
74434;PMS7003;62867;52.038;29.256;2023-09-19T06:56:27;1.8;1.4;1
74434;PMS7003;62867;52.038;29.256;2023-09-19T07:01:33;2.2;2;1.8
74434;PMS7003;62867;52.038;29.256;2023-09-19T07:05:47;3;2.8;1.6
74434;PMS7003;62867;52.038;29.256;2023-09-19T07:11:25;0.8;0.8;0.4
74434;PMS7003;62867;52.038;29.256;2023-09-19T07:15:47;1.8;1.6;1.4
74434;PMS7003;62867;52.038;29.256;2023-09-19T07:20:47;2.6;1.8;1.2
74434;PMS7003;62867;52.038;29.256;2023-09-19T07:25:59;3.3;3;2.3
74434;PMS7003;62867;52.038;29.256;2023-09-19T07:30:57;1.2;1.2;1
74434;PMS7003;62867;52.038;29.256;2023-09-19T07:36:17;3.2;2.8;2.2
74434;PMS7003;62867;52.038;29.256;2023-09-19T07:41:13;2.6;2.6;2
74434;PMS7003;62867;52.038;29.256;2023-09-19T07:46:03;4;3.8;3
74434;PMS7003;62867;52.038;29.256;2023-09-19T07:51:35;3.4;2.8;1.4
74434;PMS7003;62867;52.038;29.256;2023-09-19T07:56:08;5.8;5.3;2.5
74434;PMS7003;62867;52.038;29.256;2023-09-19T08:01:35;6.6;6.6;2.6
74434;PMS7003;62867;52.038;29.256;2023-09-19T08:05:57;7.6;7.2;2.8
74434;PMS7003;62867;52.038;29.256;2023-09-19T08:10:59;8.8;8.4;3.2
74434;PMS7003;62867;52.038;29.256;2023-09-19T08:15:47;8.2;7.2;3
74434;PMS7003;62867;52.038;29.256;2023-09-19T08:21:15;7.2;6.6;2.6
74434;PMS7003;62867;52.038;29.256;2023-09-19T08:26:19;7.2;6.8;3
74434;PMS7003;62867;52.038;29.256;2023-09-19T08:31:19;4.6;4.6;2.2
74434;PMS7003;62867;52.038;29.256;2023-09-19T08:36:35;3.8;3.6;2
74434;PMS7003;62867;52.038;29.256;2023-09-19T08:41:19;4.2;4;2.2
74434;PMS7003;62867;52.038;29.256;2023-09-19T08:46:14;3.6;3.6;2
74434;PMS7003;62867;52.038;29.256;2023-09-19T08:51:39;3.8;3;2.4
74434;PMS7003;62867;52.038;29.256;2023-09-19T08:55:59;2.8;2.3;1.3
74434;PMS7003;62867;52.038;29.256;2023-09-19T09:00:53;2.8;1.8;1.2
74434;PMS7003;62867;52.038;29.256;2023-09-19T09:06:15;2.2;1.6;1
74434;PMS7003;62867;52.038;29.256;2023-09-19T09:10:53;2;1.8;1.2
74434;PMS7003;62867;52.038;29.256;2023-09-19T09:16:17;2.8;2.4;1.4
74434;PMS7003;62867;52.038;29.256;2023-09-19T09:21:19;3;2.4;1.2
74434;PMS7003;62867;52.038;29.256;2023-09-19T09:26:42;2.8;2.8;2
74434;PMS7003;62867;52.038;29.256;2023-09-19T09:31:07;3.4;2.6;2
74434;PMS7003;62867;52.038;29.256;2023-09-19T09:36:01;2.8;2.4;2.2
74434;PMS7003;62867;52.038;29.256;2023-09-19T09:41:35;3.4;3.2;2.4
74434;PMS7003;62867;52.038;29.256;2023-09-19T09:46:05;3.4;3.2;2.2
74434;PMS7003;62867;52.038;29.256;2023-09-19T09:51:07;2;1.8;1.4
74434;PMS7003;62867;52.038;29.256;2023-09-19T09:56:35;3.5;3;2
74434;PMS7003;62867;52.038;29.256;2023-09-19T10:01:19;2.8;2.2;1.8
74434;PMS7003;62867;52.038;29.256;2023-09-19T10:06:19;2.4;2;1.6
74434;PMS7003;62867;52.038;29.256;2023-09-19T10:11:19;2.6;2.2;2
74434;PMS7003;62867;52.038;29.256;2023-09-19T10:16:35;2.6;2.2;1.4
74434;PMS7003;62867;52.038;29.256;2023-09-19T10:21:19;2.8;2.2;1.6
74434;PMS7003;62867;52.038;29.256;2023-09-19T10:26:07;1.8;1.8;1.6
74434;PMS7003;62867;52.038;29.256;2023-09-19T10:31:35;2.8;2.8;2.2
74434;PMS7003;62867;52.038;29.256;2023-09-19T10:35:53;2.6;2.2;1.4
74434;PMS7003;62867;52.038;29.256;2023-09-19T10:40:53;2.2;2;1.8
74434;PMS7003;62867;52.038;29.256;2023-09-19T10:45:53;3.2;2;1.8
74434;PMS7003;62867;52.038;29.256;2023-09-19T10:51:01;2.2;2.2;1.8
74434;PMS7003;62867;52.038;29.256;2023-09-19T10:56:21;4;3;2.3
74434;PMS7003;62867;52.038;29.256;2023-09-19T11:01:19;2.4;2.2;1.8
74434;PMS7003;62867;52.038;29.256;2023-09-19T11:06:35;3.2;2.6;2.2
74434;PMS7003;62867;52.038;29.256;2023-09-19T11:11:35;2.4;2.4;1.6
74434;PMS7003;62867;52.038;29.256;2023-09-19T11:16:03;2.6;1.6;1.2
74434;PMS7003;62867;52.038;29.256;2023-09-19T11:21:58;3.2;2.4;1.4
74434;PMS7003;62867;52.038;29.256;2023-09-19T11:25:47;2.4;2.4;1.6
74434;PMS7003;62867;52.038;29.256;2023-09-19T11:31:42;2.8;2.6;1.8
74434;PMS7003;62867;52.038;29.256;2023-09-19T11:36:35;2.2;2;1.4
74434;PMS7003;62867;52.038;29.256;2023-09-19T11:41:36;2.6;2.6;1.8
74434;PMS7003;62867;52.038;29.256;2023-09-19T11:51:19;2.2;2;1.4
74434;PMS7003;62867;52.038;29.256;2023-09-19T11:56:27;3.5;2.5;1.8
74434;PMS7003;62867;52.038;29.256;2023-09-19T12:01:35;2.8;2;1.4
74434;PMS7003;62867;52.038;29.256;2023-09-19T12:06:15;2.4;2.2;1.4
74434;PMS7003;62867;52.038;29.256;2023-09-19T12:11:40;1.8;1.4;1.2
74434;PMS7003;62867;52.038;29.256;2023-09-19T12:15:47;1.6;1.2;1
74434;PMS7003;62867;52.038;29.256;2023-09-19T12:21:01;1.4;1.2;1
74434;PMS7003;62867;52.038;29.256;2023-09-19T12:26:43;1.6;1.4;1.2
74434;PMS7003;62867;52.038;29.256;2023-09-19T12:30:47;1.8;1.8;1.2
74434;PMS7003;62867;52.038;29.256;2023-09-19T12:36:35;1.4;1;0.8
74434;PMS7003;62867;52.038;29.256;2023-09-19T12:41:19;1.6;1;0.8
74434;PMS7003;62867;52.038;29.256;2023-09-19T12:45:47;2;1.6;1
74434;PMS7003;62867;52.038;29.256;2023-09-19T12:51:34;1;1;0.8
74434;PMS7003;62867;52.038;29.256;2023-09-19T12:55:57;1;0.4;0
74434;PMS7003;62867;52.038;29.256;2023-09-19T13:01:35;1.5;0.8;0
74434;PMS7003;62867;52.038;29.256;2023-09-19T13:05:48;0.8;0.6;0.4
74434;PMS7003;62867;52.038;29.256;2023-09-19T13:11:35;1.2;1;0.8
74434;PMS7003;62867;52.038;29.256;2023-09-19T13:16:45;1;1;0.6
74434;PMS7003;62867;52.038;29.256;2023-09-19T13:21:06;1.4;1.2;0.8
74434;PMS7003;62867;52.038;29.256;2023-09-19T13:26:35;1;0.6;0.4
74434;PMS7003;62867;52.038;29.256;2023-09-19T13:31:19;0.8;0.6;0.4
74434;PMS7003;62867;52.038;29.256;2023-09-19T13:36:11;0.2;0;0
74434;PMS7003;62867;52.038;29.256;2023-09-19T13:41:35;1.6;1.4;1
74434;PMS7003;62867;52.038;29.256;2023-09-19T13:46:15;1.2;0.8;0.4
74434;PMS7003;62867;52.038;29.256;2023-09-19T13:51:17;0.8;0.6;0.2
74434;PMS7003;62867;52.038;29.256;2023-09-19T13:56:19;2.2;2.2;1
74434;PMS7003;62867;52.038;29.256;2023-09-19T14:01:01;1;1;0.3
74434;PMS7003;62867;52.038;29.256;2023-09-19T14:06:35;3.2;3.2;0.6
74434;PMS7003;62867;52.038;29.256;2023-09-19T14:10:53;3.2;3;0.4
74434;PMS7003;62867;52.038;29.256;2023-09-19T14:16:35;2.2;2;0.2
74434;PMS7003;62867;52.038;29.256;2023-09-19T14:21:19;3;2.8;0.2
74434;PMS7003;62867;52.038;29.256;2023-09-19T14:26:11;2.8;2.8;0.4
74434;PMS7003;62867;52.038;29.256;2023-09-19T14:31:25;3.8;3.6;0.6
74434;PMS7003;62867;52.038;29.256;2023-09-19T14:35:51;2;2;0.2
74434;PMS7003;62867;52.038;29.256;2023-09-19T14:41:35;3.4;3.2;0.6
74434;PMS7003;62867;52.038;29.256;2023-09-19T14:46:19;3.6;3.6;0.6
74434;PMS7003;62867;52.038;29.256;2023-09-19T14:50:47;4.2;3.4;0.6
74434;PMS7003;62867;52.038;29.256;2023-09-19T14:56:35;3.6;3.6;0.8
74434;PMS7003;62867;52.038;29.256;2023-09-19T15:01:03;3.8;3.5;0.5
74434;PMS7003;62867;52.038;29.256;2023-09-19T15:06:33;3;3;0
74434;PMS7003;62867;52.038;29.256;2023-09-19T15:11:19;3.6;3.4;0.6
74434;PMS7003;62867;52.038;29.256;2023-09-19T15:16:27;2.8;2.6;0
74434;PMS7003;62867;52.038;29.256;2023-09-19T15:21:33;2.4;2.2;0.2
74434;PMS7003;62867;52.038;29.256;2023-09-19T15:26:15;2.8;2.8;0.4
74434;PMS7003;62867;52.038;29.256;2023-09-19T15:30:47;2.4;2.4;0
74434;PMS7003;62867;52.038;29.256;2023-09-19T15:35:59;2;2;0
74434;PMS7003;62867;52.038;29.256;2023-09-19T15:41:29;2;1.8;0.2
74434;PMS7003;62867;52.038;29.256;2023-09-19T15:46:34;0.6;0.6;0
74434;PMS7003;62867;52.038;29.256;2023-09-19T15:50:47;0.6;0.4;0.2
74434;PMS7003;62867;52.038;29.256;2023-09-19T15:56:05;0.6;0.6;0.2
74434;PMS7003;62867;52.038;29.256;2023-09-19T16:01:19;0.5;0.5;0.5
74434;PMS7003;62867;52.038;29.256;2023-09-19T16:06:28;0.6;0.2;0.2
74434;PMS7003;62867;52.038;29.256;2023-09-19T16:11:35;0;0;0
74434;PMS7003;62867;52.038;29.256;2023-09-19T16:16:15;0.2;0.2;0.2
74434;PMS7003;62867;52.038;29.256;2023-09-19T16:21:21;0.2;0;0
74434;PMS7003;62867;52.038;29.256;2023-09-19T16:26:00;0.6;0.6;0.4
74434;PMS7003;62867;52.038;29.256;2023-09-19T16:30:47;0.2;0.2;0
74434;PMS7003;62867;52.038;29.256;2023-09-19T16:36:35;0.2;0.2;0.2
74434;PMS7003;62867;52.038;29.256;2023-09-19T16:40:54;0.4;0.4;0.2
74434;PMS7003;62867;52.038;29.256;2023-09-19T16:46:11;0.4;0.2;0.2
74434;PMS7003;62867;52.038;29.256;2023-09-19T16:51:19;0.6;0;0
74434;PMS7003;62867;52.038;29.256;2023-09-19T16:56:13;0.2;0.2;0
74434;PMS7003;62867;52.038;29.256;2023-09-19T17:01:35;0.3;0.3;0.3
74434;PMS7003;62867;52.038;29.256;2023-09-19T17:06:16;0.2;0.2;0.2
74434;PMS7003;62867;52.038;29.256;2023-09-19T17:10:47;0.4;0.4;0.2
74434;PMS7003;62867;52.038;29.256;2023-09-19T17:15:58;0.2;0.2;0
74434;PMS7003;62867;52.038;29.256;2023-09-19T17:20:53;0;0;0
74434;PMS7003;62867;52.038;29.256;2023-09-19T17:26:35;0.4;0.4;0
74434;PMS7003;62867;52.038;29.256;2023-09-19T17:30:53;0.4;0.2;0.2
74434;PMS7003;62867;52.038;29.256;2023-09-19T17:36:27;0.4;0.4;0
74434;PMS7003;62867;52.038;29.256;2023-09-19T17:41:19;0.4;0.2;0.2
74434;PMS7003;62867;52.038;29.256;2023-09-19T17:46:11;0.4;0.4;0.2
74434;PMS7003;62867;52.038;29.256;2023-09-19T17:51:35;0.4;0.4;0
74434;PMS7003;62867;52.038;29.256;2023-09-19T17:56:16;0.4;0.4;0.2
74434;PMS7003;62867;52.038;29.256;2023-09-19T18:01:14;0.2;0.2;0
74434;PMS7003;62867;52.038;29.256;2023-09-19T18:06:35;0.3;0.3;0
74434;PMS7003;62867;52.038;29.256;2023-09-19T18:10:48;0.8;0.8;0.4
74434;PMS7003;62867;52.038;29.256;2023-09-19T18:16:37;0.4;0;0
74434;PMS7003;62867;52.038;29.256;2023-09-19T18:20:53;1;0.6;0.4
74434;PMS7003;62867;52.038;29.256;2023-09-19T18:26:06;1.2;1.2;0.8
74434;PMS7003;62867;52.038;29.256;2023-09-19T18:31:19;0.6;0.4;0.2
74434;PMS7003;62867;52.038;29.256;2023-09-19T18:36:06;0.6;0.6;0.4
74434;PMS7003;62867;52.038;29.256;2023-09-19T18:41:37;0.6;0.6;0.2
74434;PMS7003;62867;52.038;29.256;2023-09-19T18:46:17;1.4;0.6;0.2
74434;PMS7003;62867;52.038;29.256;2023-09-19T18:50:53;1.4;0.8;0.2
74434;PMS7003;62867;52.038;29.256;2023-09-19T18:56:01;0.4;0.4;0.2
74434;PMS7003;62867;52.038;29.256;2023-09-19T19:00:59;0.6;0.6;0.6
74434;PMS7003;62867;52.038;29.256;2023-09-19T19:06:38;1;1;0.3
74434;PMS7003;62867;52.038;29.256;2023-09-19T19:11:37;1;1;0.4
74434;PMS7003;62867;52.038;29.256;2023-09-19T19:16:11;1.2;1.2;1
74434;PMS7003;62867;52.038;29.256;2023-09-19T19:20:57;1;1;0.8
74434;PMS7003;62867;52.038;29.256;2023-09-19T19:26:37;1;1;1
74434;PMS7003;62867;52.038;29.256;2023-09-19T19:31:07;0.4;0.4;0.2
74434;PMS7003;62867;52.038;29.256;2023-09-19T19:36:37;1.8;1.4;1
74434;PMS7003;62867;52.038;29.256;2023-09-19T19:40:47;1;0.6;0.4
74434;PMS7003;62867;52.038;29.256;2023-09-19T19:45:53;0.8;0.8;0.6
74434;PMS7003;62867;52.038;29.256;2023-09-19T19:51:37;1.4;1.4;1
74434;PMS7003;62867;52.038;29.256;2023-09-19T19:55:58;1.6;1.4;1
74434;PMS7003;62867;52.038;29.256;2023-09-19T20:01:37;1;1;0.8
74434;PMS7003;62867;52.038;29.256;2023-09-19T20:06:21;1;1;0.8
74434;PMS7003;62867;52.038;29.256;2023-09-19T20:11:27;2.2;1.6;1.4
74434;PMS7003;62867;52.038;29.256;2023-09-19T20:16:37;1.8;1.8;0.8
74434;PMS7003;62867;52.038;29.256;2023-09-19T20:21:17;1.6;1.4;1
74434;PMS7003;62867;52.038;29.256;2023-09-19T20:26:35;1;1;0.8
74434;PMS7003;62867;52.038;29.256;2023-09-19T20:31:15;1.4;1.2;0.8
74434;PMS7003;62867;52.038;29.256;2023-09-19T20:35:56;2.2;2.2;1.8
74434;PMS7003;62867;52.038;29.256;2023-09-19T20:41:35;1.6;1.4;1.4
74434;PMS7003;62867;52.038;29.256;2023-09-19T20:46:15;1;1;0.4
74434;PMS7003;62867;52.038;29.256;2023-09-19T20:51:38;2;2;1.6
74434;PMS7003;62867;52.038;29.256;2023-09-19T20:55:47;1.6;1.6;1.2
74434;PMS7003;62867;52.038;29.256;2023-09-19T21:01:27;1.6;1.6;0.8
74434;PMS7003;62867;52.038;29.256;2023-09-19T21:06:37;1.3;1.3;1
74434;PMS7003;62867;52.038;29.256;2023-09-19T21:11:09;1.8;1.8;1.4
74434;PMS7003;62867;52.038;29.256;2023-09-19T21:16:37;1;1;0.6
74434;PMS7003;62867;52.038;29.256;2023-09-19T21:20:47;1.6;1.6;1.2
74434;PMS7003;62867;52.038;29.256;2023-09-19T21:25:53;1.8;1.4;1.2
74434;PMS7003;62867;52.038;29.256;2023-09-19T21:31:37;2;2;1.6
74434;PMS7003;62867;52.038;29.256;2023-09-19T21:36:17;2.8;2.8;1.8
74434;PMS7003;62867;52.038;29.256;2023-09-19T21:41:37;2.6;2.6;1.8
74434;PMS7003;62867;52.038;29.256;2023-09-19T21:46:11;2.2;1.8;1
74434;PMS7003;62867;52.038;29.256;2023-09-19T21:50:52;4;4;3.2
74434;PMS7003;62867;52.038;29.256;2023-09-19T21:56:33;1.6;1.6;1.6
74434;PMS7003;62867;52.038;29.256;2023-09-19T22:00:57;2.4;2.4;2.4
74434;PMS7003;62867;52.038;29.256;2023-09-19T22:06:37;2;2;1
74434;PMS7003;62867;52.038;29.256;2023-09-19T22:11:01;1.3;1.3;1.3
74434;PMS7003;62867;52.038;29.256;2023-09-19T22:16:27;1.2;1;0.6
74434;PMS7003;62867;52.038;29.256;2023-09-19T22:21:37;1.2;1.2;0.8
74434;PMS7003;62867;52.038;29.256;2023-09-19T22:26:17;1;1;0.8
74434;PMS7003;62867;52.038;29.256;2023-09-19T22:31:37;1;0.6;0.4
74434;PMS7003;62867;52.038;29.256;2023-09-19T22:36:11;1;0.8;0.6
74434;PMS7003;62867;52.038;29.256;2023-09-19T22:41:27;0.4;0.4;0.2
74434;PMS7003;62867;52.038;29.256;2023-09-19T22:46:17;0.4;0.4;0.4
74434;PMS7003;62867;52.038;29.256;2023-09-19T22:51:07;0.2;0.2;0
74434;PMS7003;62867;52.038;29.256;2023-09-19T22:56:18;0;0;0
74434;PMS7003;62867;52.038;29.256;2023-09-19T23:00:47;0.6;0.6;0.4
74434;PMS7003;62867;52.038;29.256;2023-09-19T23:05:47;0.4;0.4;0.2
74434;PMS7003;62867;52.038;29.256;2023-09-19T23:11:37;0.3;0.3;0
74434;PMS7003;62867;52.038;29.256;2023-09-19T23:16:17;0.4;0.2;0
74434;PMS7003;62867;52.038;29.256;2023-09-19T23:21:13;0.2;0;0
74434;PMS7003;62867;52.038;29.256;2023-09-19T23:26:21;0;0;0
74434;PMS7003;62867;52.038;29.256;2023-09-19T23:31:13;0;0;0
74434;PMS7003;62867;52.038;29.256;2023-09-19T23:36:35;0.4;0.2;0
74434;PMS7003;62867;52.038;29.256;2023-09-19T23:40:59;0;0;0
74434;PMS7003;62867;52.038;29.256;2023-09-19T23:45:47;0.2;0;0
74434;PMS7003;62867;52.038;29.256;2023-09-19T23:50:55;0.2;0;0
74434;PMS7003;62867;52.038;29.256;2023-09-19T23:55:47;0;0;0
